createdAt,value
2018-09-29T00:00:37.941Z,1001.30
2018-09-29T00:01:38.069Z,1001.38
2018-09-29T00:02:37.780Z,1001.34
2018-09-29T00:03:37.683Z,1001.33
2018-09-29T00:04:37.625Z,1001.35
2018-09-29T00:05:37.521Z,1001.35
2018-09-29T00:06:37.443Z,1001.38
2018-09-29T00:07:37.364Z,1001.36
2018-09-29T00:08:37.314Z,1001.37
2018-09-29T00:09:37.207Z,1001.37
2018-09-29T00:10:37.126Z,1001.34
2018-09-29T00:11:37.149Z,1001.33
2018-09-29T00:12:36.971Z,1001.34
2018-09-29T00:13:36.891Z,1001.33
2018-09-29T00:14:36.839Z,1001.36
2018-09-29T00:15:36.738Z,1001.37
2018-09-29T00:16:36.789Z,1001.42
2018-09-29T00:17:36.577Z,1001.43
2018-09-29T00:18:36.497Z,1001.44
2018-09-29T00:19:36.416Z,1001.45
2018-09-29T00:20:36.339Z,1001.44
2018-09-29T00:21:36.260Z,1001.45
2018-09-29T00:22:36.480Z,1001.43
2018-09-29T00:23:36.102Z,1001.45
2018-09-29T00:24:36.024Z,1001.46
2018-09-29T00:25:35.944Z,1001.43
2018-09-29T00:26:35.864Z,1001.43
2018-09-29T00:27:35.786Z,1001.45
2018-09-29T00:28:35.757Z,1001.45
2018-09-29T00:29:35.628Z,1001.43
2018-09-29T00:30:35.552Z,1001.43
2018-09-29T00:31:35.470Z,1001.44
2018-09-29T00:32:35.418Z,1001.43
2018-09-29T00:33:35.516Z,1001.43
2018-09-29T00:34:35.237Z,1001.38
2018-09-29T00:35:35.357Z,1001.34
2018-09-29T00:36:35.076Z,1001.34
2018-09-29T00:37:34.998Z,1001.30
2018-09-29T00:38:34.991Z,1001.33
2018-09-29T00:39:34.868Z,1001.35
2018-09-29T00:40:34.758Z,1001.32
2018-09-29T00:41:34.680Z,1001.36
2018-09-29T00:42:34.600Z,1001.31
2018-09-29T00:43:34.546Z,1001.32
2018-09-29T00:44:34.472Z,1001.35
2018-09-29T00:45:34.364Z,1001.34
2018-09-29T00:46:34.311Z,1001.38
2018-09-29T00:47:34.231Z,1001.35
2018-09-29T00:48:34.153Z,1001.34
2018-09-29T00:49:34.050Z,1001.37
2018-09-29T00:50:34.301Z,1001.33
2018-09-29T00:51:33.892Z,1001.37
2018-09-29T00:52:33.811Z,1001.35
2018-09-29T00:53:33.733Z,1001.32
2018-09-29T00:54:33.653Z,1001.37
2018-09-29T00:55:33.805Z,1001.34
2018-09-29T00:56:33.522Z,1001.34
2018-09-29T00:57:33.444Z,1001.31
2018-09-29T00:58:33.336Z,1001.26
2018-09-29T00:59:33.691Z,1001.24
2018-09-29T01:00:33.512Z,1001.20
2018-09-29T01:01:33.102Z,1001.18
2018-09-29T01:02:33.022Z,1001.16
2018-09-29T01:03:32.945Z,1001.18
2018-09-29T01:04:32.894Z,1001.16
2018-09-29T01:05:33.712Z,1001.14
2018-09-29T01:06:32.908Z,1001.15
2018-09-29T01:07:32.656Z,1001.14
2018-09-29T01:08:32.551Z,1001.12
2018-09-29T01:09:32.469Z,1001.14
2018-09-29T01:10:32.390Z,1001.15
2018-09-29T01:11:32.587Z,1001.19
2018-09-29T01:12:32.232Z,1001.18
2018-09-29T01:13:32.487Z,1001.16
2018-09-29T01:14:32.074Z,1001.14
2018-09-29T01:15:31.995Z,1001.13
2018-09-29T01:16:31.943Z,1001.17
2018-09-29T01:17:31.838Z,1001.17
2018-09-29T01:18:31.758Z,1001.13
2018-09-29T01:19:32.011Z,1001.14
2018-09-29T01:20:31.801Z,1001.13
2018-09-29T01:21:31.550Z,1001.13
2018-09-29T01:22:31.517Z,1001.13
2018-09-29T01:23:31.589Z,1001.10
2018-09-29T01:24:31.283Z,1001.12
2018-09-29T01:25:31.205Z,1001.12
2018-09-29T01:26:31.124Z,1001.10
2018-09-29T01:28:31.091Z,1001.09
2018-09-29T01:29:31.117Z,1001.13
2018-09-29T01:30:30.810Z,1001.16
2018-09-29T01:31:30.757Z,1001.14
2018-09-29T01:32:30.674Z,1001.15
2018-09-29T01:33:30.799Z,1001.20
2018-09-29T01:34:30.489Z,1001.17
2018-09-29T01:35:30.410Z,1001.17
2018-09-29T01:36:30.662Z,1001.19
2018-09-29T01:37:30.251Z,1001.23
2018-09-29T01:39:30.518Z,1001.23
2018-09-29T01:40:30.037Z,1001.21
2018-09-29T01:41:29.960Z,1001.23
2018-09-29T01:42:30.293Z,1001.22
2018-09-29T01:43:30.001Z,1001.27
2018-09-29T01:46:29.612Z,1001.26
2018-09-29T01:47:29.786Z,1001.22
2018-09-29T01:49:30.236Z,1001.27
2018-09-29T01:51:29.164Z,1001.27
2018-09-29T01:52:29.056Z,1001.24
2018-09-29T01:53:29.311Z,1001.23
2018-09-29T01:54:28.897Z,1001.22
2018-09-29T01:55:28.841Z,1001.18
2018-09-29T01:57:28.685Z,1001.18
2018-09-29T01:58:28.804Z,1001.17
2018-09-29T01:59:28.525Z,1001.20
2018-09-29T02:00:28.922Z,1001.17
2018-09-29T02:01:28.669Z,1001.16
2018-09-29T02:02:28.284Z,1001.16
2018-09-29T02:03:28.203Z,1001.22
2018-09-29T02:05:28.649Z,1001.17
2018-09-29T02:06:28.238Z,1001.18
2018-09-29T02:07:27.885Z,1001.16
2018-09-29T02:09:27.721Z,1001.17
2018-09-29T02:10:27.615Z,1001.15
2018-09-29T02:11:27.573Z,1001.12
2018-09-29T02:12:27.456Z,1001.14
2018-09-29T02:13:27.708Z,1001.16
2018-09-29T02:14:27.523Z,1001.16
2018-09-29T02:15:27.243Z,1001.19
2018-09-29T02:16:27.135Z,1001.18
2018-09-29T02:17:27.054Z,1001.17
2018-09-29T02:18:26.973Z,1001.20
2018-09-29T02:19:26.894Z,1001.18
2018-09-29T02:20:26.813Z,1001.20
2018-09-29T02:21:26.733Z,1001.15
2018-09-29T02:23:26.849Z,1001.12
2018-09-29T02:25:26.443Z,1001.16
2018-09-29T02:26:26.359Z,1001.19
2018-09-29T02:27:26.476Z,1001.17
2018-09-29T02:28:26.245Z,1001.15
2018-09-29T02:29:26.119Z,1001.14
2018-09-29T02:30:26.008Z,1001.10
2018-09-29T02:32:25.847Z,1001.12
2018-09-29T02:33:25.804Z,1001.10
2018-09-29T02:34:25.689Z,1001.08
2018-09-29T02:35:25.637Z,1001.09
2018-09-29T02:36:25.524Z,1001.08
2018-09-29T02:37:25.444Z,1001.05
2018-09-29T02:38:25.590Z,1001.07
2018-09-29T02:39:25.310Z,1001.10
2018-09-29T02:40:25.230Z,1001.09
2018-09-29T02:41:28.573Z,1001.13
2018-09-29T02:42:25.069Z,1001.09
2018-09-29T02:43:25.189Z,1001.08
2018-09-29T02:44:25.106Z,1001.08
2018-09-29T02:45:24.826Z,1001.07
2018-09-29T02:46:24.741Z,1001.06
2018-09-29T02:47:24.663Z,1000.98
2018-09-29T02:48:24.585Z,1001.03
2018-09-29T02:49:24.504Z,1001.03
2018-09-29T02:50:24.418Z,1001.00
2018-09-29T02:51:25.222Z,1001.02
2018-09-29T02:52:24.565Z,1000.96
2018-09-29T02:53:24.226Z,1001.00
2018-09-29T02:54:25.011Z,1000.97
2018-09-29T02:55:24.016Z,1000.97
2018-09-29T02:56:23.934Z,1000.95
2018-09-29T02:57:24.362Z,1001.00
2018-09-29T02:58:23.775Z,1000.93
2018-09-29T02:59:23.795Z,1000.93
2018-09-29T03:00:23.612Z,1000.95
2018-09-29T03:02:23.448Z,1000.92
2018-09-29T03:03:23.571Z,1000.89
2018-09-29T03:04:23.491Z,1000.92
2018-09-29T03:05:23.211Z,1000.92
2018-09-29T03:06:23.124Z,1000.92
2018-09-29T03:07:23.046Z,1000.94
2018-09-29T03:08:23.168Z,1000.95
2018-09-29T03:09:22.882Z,1000.93
2018-09-29T03:10:22.801Z,1000.96
2018-09-29T03:11:22.770Z,1000.94
2018-09-29T03:12:22.840Z,1000.95
2018-09-29T03:13:22.556Z,1000.92
2018-09-29T03:14:22.474Z,1000.97
2018-09-29T03:16:22.315Z,1000.99
2018-09-29T03:18:22.275Z,1001.04
2018-09-29T03:19:23.077Z,1001.05
2018-09-29T03:23:21.743Z,1001.07
2018-09-29T03:24:21.664Z,1001.09
2018-09-29T03:25:22.296Z,1001.10
2018-09-29T03:26:21.508Z,1001.13
2018-09-29T03:27:21.899Z,1001.13
2018-09-29T03:28:21.546Z,1001.15
2018-09-29T03:29:21.260Z,1001.14
2018-09-29T03:30:22.135Z,1001.16
2018-09-29T03:33:21.851Z,1001.16
2018-09-29T03:34:21.258Z,1001.11
2018-09-29T03:35:20.975Z,1001.11
2018-09-29T03:41:20.438Z,1001.01
2018-09-29T03:44:20.319Z,1001.00
2018-09-29T03:46:19.875Z,1001.05
2018-09-29T03:49:19.835Z,1001.11
2018-09-29T03:51:19.878Z,1001.13
2018-09-29T03:54:20.599Z,1001.09
2018-09-29T03:56:19.542Z,1001.09
2018-09-29T03:57:18.989Z,1001.14
2018-09-29T04:00:19.397Z,1001.17
2018-09-29T04:03:18.800Z,1001.22
2018-09-29T04:06:19.009Z,1001.21
2018-09-29T04:09:18.409Z,1001.27
2018-09-29T04:10:17.928Z,1001.28
2018-09-29T04:12:18.012Z,1001.21
2018-09-29T04:13:17.984Z,1001.21
2018-09-29T04:20:17.260Z,1001.21
2018-09-29T04:22:17.559Z,1001.22
2018-09-29T04:26:17.781Z,1001.16
2018-09-29T04:29:16.378Z,1001.21
2018-09-29T04:35:18.913Z,1001.13
2018-09-29T04:43:15.946Z,1001.03
2018-09-29T04:48:15.230Z,1001.09
2018-09-29T04:51:14.982Z,1001.05
2018-09-29T04:54:14.330Z,1001.17
2018-09-29T04:57:15.954Z,1001.20
2018-09-29T05:01:14.169Z,1001.27
2018-09-29T05:11:13.147Z,1001.31
2018-09-29T05:14:13.099Z,1001.32
2018-09-29T05:15:13.219Z,1001.33
2018-09-29T05:21:12.537Z,1001.33
2018-09-29T05:24:12.530Z,1001.34
2018-09-29T05:27:11.909Z,1001.31
2018-09-29T05:28:11.550Z,1001.34
2018-09-29T05:29:11.673Z,1001.29
2018-09-29T05:34:11.208Z,1001.34
2018-09-29T05:35:10.977Z,1001.35
2018-09-29T05:36:10.893Z,1001.38
2018-09-29T05:37:11.218Z,1001.36
2018-09-29T05:38:10.931Z,1001.42
2018-09-29T05:39:10.650Z,1001.45
2018-09-29T05:40:12.132Z,1001.50
2018-09-29T05:41:10.481Z,1001.48
2018-09-29T05:42:10.606Z,1001.53
2018-09-29T05:43:11.000Z,1001.50
2018-09-29T05:44:10.236Z,1001.51
2018-09-29T05:46:10.226Z,1001.53
2018-09-29T05:47:10.190Z,1001.57
2018-09-29T05:49:09.826Z,1001.57
2018-09-29T05:50:10.456Z,1001.58
2018-09-29T05:52:10.030Z,1001.59
2018-09-29T05:53:09.907Z,1001.61
2018-09-29T05:54:10.096Z,1001.56
2018-09-29T05:55:09.533Z,1001.60
2018-09-29T05:57:09.773Z,1001.64
2018-09-29T05:59:09.611Z,1001.69
2018-09-29T06:00:09.197Z,1001.66
2018-09-29T06:01:08.840Z,1001.70
2018-09-29T06:02:08.758Z,1001.73
2018-09-29T06:05:08.864Z,1001.74
2018-09-29T06:08:08.268Z,1001.75
2018-09-29T06:10:08.305Z,1001.76
2018-09-29T06:12:08.387Z,1001.75
2018-09-29T06:17:07.529Z,1001.87
2018-09-29T06:19:08.681Z,1001.84
2018-09-29T06:21:07.200Z,1001.86
2018-09-29T06:22:07.523Z,1001.81
2018-09-29T06:23:10.271Z,1001.86
2018-09-29T06:30:06.459Z,1001.82
2018-09-29T06:32:07.367Z,1001.84
2018-09-29T06:33:06.424Z,1001.86
2018-09-29T06:34:06.383Z,1001.83
2018-09-29T06:35:06.255Z,1001.79
2018-09-29T06:36:06.885Z,1001.87
2018-09-29T06:41:06.277Z,1001.87
2018-09-29T06:42:05.492Z,1001.84
2018-09-29T07:06:03.956Z,1001.75
2018-09-29T07:08:03.668Z,1001.81
2018-09-29T07:09:03.313Z,1001.80
2018-09-29T07:49:00.207Z,1001.89
2018-09-29T08:05:59.532Z,1001.93
2018-09-29T08:14:58.951Z,1001.90
2018-09-29T08:17:57.903Z,1001.90
2018-09-29T08:18:57.830Z,1001.88
2018-09-29T08:19:57.727Z,1001.83
2018-09-29T08:20:57.649Z,1001.82
2018-09-29T08:21:57.602Z,1001.81
2018-09-29T08:22:57.523Z,1001.84
2018-09-29T08:23:57.473Z,1001.83
2018-09-29T08:24:57.574Z,1001.84
2018-09-29T08:25:57.296Z,1001.82
2018-09-29T08:27:57.138Z,1001.81
2018-09-29T08:28:57.039Z,1001.89
2018-09-29T08:29:56.959Z,1001.90
2018-09-29T08:30:56.883Z,1001.88
2018-09-29T08:31:57.041Z,1001.91
2018-09-29T08:32:56.760Z,1001.90
2018-09-29T08:33:56.679Z,1001.91
2018-09-29T08:36:56.653Z,1001.88
2018-09-29T08:37:56.358Z,1001.91
2018-09-29T08:40:56.121Z,1001.88
2018-09-29T08:41:56.044Z,1001.94
2018-09-29T08:42:56.019Z,1001.89
2018-09-29T08:43:55.916Z,1001.90
2018-09-29T08:44:55.816Z,1001.88
2018-09-29T08:45:55.740Z,1001.84
2018-09-29T08:46:55.667Z,1001.84
2018-09-29T08:47:55.588Z,1001.83
2018-09-29T08:48:55.513Z,1001.82
2018-09-29T08:49:55.435Z,1001.78
2018-09-29T08:50:55.591Z,1001.82
2018-09-29T08:51:55.287Z,1001.77
2018-09-29T08:52:55.234Z,1001.62
2018-09-29T08:53:55.132Z,1001.72
2018-09-29T08:54:55.234Z,1001.65
2018-09-29T08:55:55.718Z,1001.66
2018-09-29T08:58:55.287Z,1001.61
2018-09-29T09:00:54.777Z,1001.63
2018-09-29T09:01:54.954Z,1001.69
2018-09-29T09:02:54.678Z,1001.65
2018-09-29T09:03:54.409Z,1001.59
2018-09-29T09:04:54.525Z,1001.62
2018-09-29T09:05:54.957Z,1001.56
2018-09-29T09:06:54.576Z,1001.63
2018-09-29T09:07:54.301Z,1001.64
2018-09-29T09:08:54.428Z,1001.55
2018-09-29T09:10:53.868Z,1001.58
2018-09-29T09:12:53.718Z,1001.62
2018-09-29T09:13:53.842Z,1001.61
2018-09-29T09:14:53.769Z,1001.65
2018-09-29T09:15:53.491Z,1001.63
2018-09-29T09:17:53.339Z,1001.60
2018-09-29T09:18:53.288Z,1001.58
2018-09-29T09:19:53.162Z,1001.57
2018-09-29T09:20:53.113Z,1001.59
2018-09-29T09:21:53.344Z,1001.58
2018-09-29T09:22:53.038Z,1001.58
2018-09-29T09:23:52.934Z,1001.61
2018-09-29T09:24:52.813Z,1001.58
2018-09-29T09:26:52.864Z,1001.58
2018-09-29T09:28:52.512Z,1001.59
2018-09-29T09:29:52.421Z,1001.55
2018-09-29T09:30:52.366Z,1001.61
2018-09-29T09:34:52.060Z,1001.51
2018-09-29T09:37:51.886Z,1001.54
2018-09-29T09:38:52.162Z,1001.54
2018-09-29T09:39:51.993Z,1001.48
2018-09-29T09:40:51.585Z,1001.46
2018-09-29T09:41:51.511Z,1001.51
2018-09-29T09:42:51.435Z,1001.47
2018-09-29T09:43:51.359Z,1001.48
2018-09-29T09:44:51.287Z,1001.47
2018-09-29T09:45:51.209Z,1001.53
2018-09-29T09:46:51.140Z,1001.45
2018-09-29T09:47:51.063Z,1001.41
2018-09-29T09:48:50.985Z,1001.47
2018-09-29T09:49:50.962Z,1001.42
2018-09-29T09:50:50.838Z,1001.39
2018-09-29T09:51:50.759Z,1001.38
2018-09-29T09:52:50.685Z,1001.41
2018-09-29T09:53:50.610Z,1001.39
2018-09-29T09:54:50.635Z,1001.36
2018-09-29T09:55:50.499Z,1001.36
2018-09-29T09:56:50.389Z,1001.42
2018-09-29T09:57:50.312Z,1001.38
2018-09-29T09:58:50.238Z,1001.38
2018-09-29T09:59:50.163Z,1001.35
2018-09-29T10:00:50.089Z,1001.34
2018-09-29T10:01:50.014Z,1001.33
2018-09-29T10:02:49.937Z,1001.30
2018-09-29T10:03:49.868Z,1001.29
2018-09-29T10:04:49.794Z,1001.24
2018-09-29T10:05:49.715Z,1001.24
2018-09-29T10:06:49.641Z,1001.33
2018-09-29T10:07:49.569Z,1001.28
2018-09-29T10:08:49.492Z,1001.30
2018-09-29T10:09:49.416Z,1001.32
2018-09-29T10:10:49.343Z,1001.31
2018-09-29T10:11:49.267Z,1001.35
2018-09-29T10:12:49.193Z,1001.34
2018-09-29T10:13:49.120Z,1001.23
2018-09-29T10:14:49.042Z,1001.19
2018-09-29T10:15:48.968Z,1001.24
2018-09-29T10:16:48.897Z,1001.22
2018-09-29T10:17:48.819Z,1001.19
2018-09-29T10:18:48.743Z,1001.21
2018-09-29T10:19:48.669Z,1001.15
2018-09-29T10:20:48.594Z,1001.13
2018-09-29T10:21:48.519Z,1001.06
2018-09-29T10:22:48.443Z,1001.08
2018-09-29T10:23:48.371Z,1001.07
2018-09-29T10:24:48.295Z,1001.18
2018-09-29T10:25:48.221Z,1001.14
2018-09-29T10:26:48.145Z,1001.10
2018-09-29T10:27:48.110Z,1001.15
2018-09-29T10:28:47.999Z,1001.06
2018-09-29T10:29:47.921Z,1001.11
2018-09-29T10:30:47.848Z,1001.19
2018-09-29T10:31:47.785Z,1001.24
2018-09-29T10:32:47.701Z,1001.14
2018-09-29T10:33:47.625Z,1001.12
2018-09-29T10:34:47.551Z,1001.07
2018-09-29T10:35:47.477Z,1001.11
2018-09-29T10:36:47.404Z,1001.16
2018-09-29T10:37:47.328Z,1001.05
2018-09-29T10:38:47.254Z,1001.04
2018-09-29T10:39:47.182Z,1001.02
2018-09-29T10:40:47.108Z,1001.03
2018-09-29T10:41:47.085Z,1001.08
2018-09-29T10:42:46.959Z,1001.08
2018-09-29T10:43:46.884Z,1001.08
2018-09-29T10:44:46.810Z,1001.04
2018-09-29T10:45:46.737Z,1001.05
2018-09-29T10:46:46.662Z,1001.07
2018-09-29T10:47:46.590Z,1001.03
2018-09-29T10:48:46.516Z,1001.05
2018-09-29T10:49:46.443Z,1001.01
2018-09-29T10:50:46.368Z,1000.90
2018-09-29T10:51:46.295Z,1000.84
2018-09-29T10:52:46.277Z,1000.91
2018-09-29T10:53:46.147Z,1000.93
2018-09-29T10:54:46.074Z,1000.93
2018-09-29T10:55:45.999Z,1000.96
2018-09-29T10:56:45.928Z,1000.96
2018-09-29T10:57:45.856Z,1000.99
2018-09-29T10:58:45.779Z,1000.97
2018-09-29T10:59:45.705Z,1000.92
2018-09-29T11:00:45.875Z,1000.94
2018-09-29T11:01:45.559Z,1000.86
2018-09-29T11:02:45.558Z,1000.92
2018-09-29T11:03:45.413Z,1000.97
2018-09-29T11:04:45.346Z,1000.92
2018-09-29T11:05:45.269Z,1001.01
2018-09-29T11:06:45.245Z,1001.12
2018-09-29T11:07:45.127Z,1001.07
2018-09-29T11:08:45.055Z,1001.09
2018-09-29T11:09:44.982Z,1001.12
2018-09-29T11:10:44.911Z,1001.23
2018-09-29T11:11:44.841Z,1001.11
2018-09-29T11:12:44.770Z,1001.09
2018-09-29T11:13:44.701Z,1001.00
2018-09-29T11:14:44.630Z,1001.39
2018-09-29T11:15:44.560Z,1001.11
2018-09-29T11:16:44.491Z,1001.16
2018-09-29T11:17:44.420Z,1001.11
2018-09-29T11:18:44.351Z,1001.16
2018-09-29T11:19:44.282Z,1000.93
2018-09-29T11:20:44.255Z,1000.93
2018-09-29T11:21:44.143Z,1000.99
2018-09-29T11:22:44.076Z,1001.02
2018-09-29T11:23:44.004Z,1001.02
2018-09-29T11:24:43.936Z,1001.03
2018-09-29T11:25:43.866Z,1001.08
2018-09-29T11:26:43.795Z,1000.83
2018-09-29T11:27:43.736Z,1000.94
2018-09-29T11:28:43.659Z,1000.87
2018-09-29T11:29:43.588Z,1001.03
2018-09-29T11:30:43.519Z,1000.97
2018-09-29T11:31:43.450Z,1000.86
2018-09-29T11:32:43.382Z,1000.97
2018-09-29T11:33:43.312Z,1000.98
2018-09-29T11:34:43.245Z,1000.77
2018-09-29T11:35:43.177Z,1000.85
2018-09-29T11:36:43.106Z,1000.84
2018-09-29T11:37:43.038Z,1000.74
2018-09-29T11:38:42.971Z,1000.77
2018-09-29T11:39:42.902Z,1000.79
2018-09-29T11:40:42.833Z,1000.75
2018-09-29T11:41:42.766Z,1000.72
2018-09-29T11:43:42.679Z,1000.72
2018-09-29T11:44:42.576Z,1000.71
2018-09-29T11:45:42.493Z,1000.81
2018-09-29T11:46:42.433Z,1000.85
2018-09-29T11:47:42.358Z,1000.70
2018-09-29T11:48:42.292Z,1000.75
2018-09-29T11:49:42.226Z,1000.82
2018-09-29T11:51:24.648Z,1000.79
2018-09-29T11:52:24.582Z,1000.82
2018-09-29T11:53:24.518Z,1000.73
2018-09-29T11:54:24.499Z,1000.78
2018-09-29T11:55:24.381Z,1000.77
2018-09-29T11:56:24.316Z,1000.73
2018-09-29T11:57:24.250Z,1000.62
2018-09-29T11:58:24.184Z,1000.67
2018-09-29T11:59:24.119Z,1000.71
2018-09-29T12:00:24.053Z,1000.66
2018-09-29T12:01:23.991Z,1000.72
2018-09-29T12:02:23.923Z,1000.70
2018-09-29T12:03:23.856Z,1000.65
2018-09-29T12:04:23.792Z,1000.66
2018-09-29T12:05:23.726Z,1000.57
2018-09-29T12:06:23.700Z,1000.52
2018-09-29T12:07:23.603Z,1000.52
2018-09-29T12:08:23.530Z,1000.54
2018-09-29T12:09:23.467Z,1000.55
2018-09-29T12:10:23.401Z,1000.55
2018-09-29T12:11:23.336Z,1000.57
2018-09-29T12:12:23.275Z,1000.50
2018-09-29T12:13:23.209Z,1000.59
2018-09-29T12:14:23.191Z,1000.57
2018-09-29T12:15:23.131Z,1000.58
2018-09-29T12:16:23.017Z,1000.53
2018-09-29T12:17:22.953Z,1000.47
2018-09-29T12:18:22.890Z,1000.43
2018-09-29T12:19:22.825Z,1000.39
2018-09-29T12:20:22.766Z,1000.44
2018-09-29T12:21:22.705Z,1000.41
2018-09-29T12:22:22.714Z,1000.34
2018-09-29T12:23:22.574Z,1000.35
2018-09-29T12:24:22.510Z,1000.28
2018-09-29T12:25:22.447Z,1000.24
2018-09-29T12:26:22.383Z,1000.32
2018-09-29T12:27:24.920Z,1000.23
2018-09-29T12:28:22.259Z,1000.20
2018-09-29T12:29:22.253Z,1000.21
2018-09-29T12:30:22.132Z,1000.27
2018-09-29T12:31:22.070Z,1000.23
2018-09-29T12:32:22.009Z,1000.25
2018-09-29T12:33:21.946Z,1000.24
2018-09-29T12:34:21.882Z,1000.23
2018-09-29T12:35:21.820Z,1000.18
2018-09-29T12:36:21.757Z,1000.16
2018-09-29T12:37:21.818Z,1000.18
2018-09-29T12:38:21.633Z,1000.20
2018-09-29T12:39:21.570Z,1000.20
2018-09-29T12:40:21.507Z,1000.19
2018-09-29T12:41:21.445Z,1000.14
2018-09-29T12:42:21.381Z,1000.13
2018-09-29T12:43:21.317Z,1000.12
2018-09-29T12:44:21.309Z,1000.09
2018-09-29T12:45:21.193Z,1000.00
2018-09-29T12:46:21.129Z,1000.11
2018-09-29T12:47:21.066Z,1000.08
2018-09-29T12:48:21.002Z,1000.10
2018-09-29T12:49:20.938Z,1000.14
2018-09-29T12:50:20.875Z,1000.03
2018-09-29T12:51:20.818Z,1000.06
2018-09-29T12:52:20.747Z,999.95
2018-09-29T12:53:20.683Z,999.90
2018-09-29T12:54:20.619Z,999.89
2018-09-29T12:55:20.559Z,999.89
2018-09-29T12:56:20.492Z,999.84
2018-09-29T12:57:20.431Z,999.80
2018-09-29T12:58:20.365Z,999.75
2018-09-29T12:59:20.325Z,999.74
2018-09-29T13:00:20.237Z,999.76
2018-09-29T13:01:20.174Z,999.66
2018-09-29T13:02:20.112Z,999.76
2018-09-29T13:03:20.047Z,999.72
2018-09-29T13:04:19.983Z,999.67
2018-09-29T13:05:19.997Z,999.69
2018-09-29T13:06:19.856Z,999.61
2018-09-29T13:07:19.796Z,999.71
2018-09-29T13:08:19.732Z,999.64
2018-09-29T13:09:19.671Z,999.66
2018-09-29T13:10:19.604Z,999.47
2018-09-29T13:11:19.541Z,999.51
2018-09-29T13:12:19.479Z,999.13
2018-09-29T13:13:19.417Z,999.41
2018-09-29T13:14:19.352Z,999.24
2018-09-29T13:15:19.289Z,999.12
2018-09-29T13:16:19.225Z,999.05
2018-09-29T13:17:19.163Z,999.03
2018-09-29T13:18:19.096Z,999.15
2018-09-29T13:19:19.033Z,999.18
2018-09-29T13:20:18.969Z,999.01
2018-09-29T13:21:18.905Z,999.45
2018-09-29T13:22:18.843Z,999.49
2018-09-29T13:23:18.772Z,999.51
2018-09-29T13:24:18.708Z,999.57
2018-09-29T13:25:18.644Z,999.59
2018-09-29T13:26:18.577Z,999.56
2018-09-29T13:27:18.515Z,999.57
2018-09-29T13:28:18.446Z,999.38
2018-09-29T13:29:18.382Z,999.05
2018-09-29T13:30:18.320Z,998.99
2018-09-29T13:31:18.251Z,998.92
2018-09-29T13:32:18.186Z,999.06
2018-09-29T13:33:18.120Z,999.01
2018-09-29T13:34:18.054Z,999.59
2018-09-29T13:35:17.991Z,999.61
2018-09-29T13:36:17.923Z,999.79
2018-09-29T13:37:17.858Z,999.90
2018-09-29T13:38:17.798Z,999.90
2018-09-29T13:39:17.723Z,999.93
2018-09-29T13:40:17.657Z,1000.04
2018-09-29T13:41:17.591Z,1000.05
2018-09-29T13:42:17.525Z,999.96
2018-09-29T13:43:17.460Z,1000.01
2018-09-29T13:44:17.390Z,1000.01
2018-09-29T13:45:17.329Z,999.86
2018-09-29T13:46:17.256Z,999.89
2018-09-29T13:47:17.188Z,999.90
2018-09-29T13:48:17.122Z,999.52
2018-09-29T13:49:17.054Z,999.10
2018-09-29T13:50:16.989Z,999.02
2018-09-29T13:51:16.921Z,998.97
2018-09-29T13:52:16.855Z,998.93
2018-09-29T13:53:16.788Z,998.87
2018-09-29T13:54:16.722Z,998.93
2018-09-29T13:55:16.655Z,998.89
2018-09-29T13:56:16.590Z,998.76
2018-09-29T13:57:16.522Z,998.70
2018-09-29T13:58:16.455Z,998.53
2018-09-29T14:00:16.326Z,998.55
2018-09-29T14:01:16.256Z,998.54
2018-09-29T14:02:16.210Z,998.49
2018-09-29T14:03:16.121Z,998.50
2018-09-29T14:04:16.057Z,998.60
2018-09-29T14:05:15.987Z,998.52
2018-09-29T14:06:15.922Z,998.51
2018-09-29T14:07:15.851Z,998.41
2018-09-29T14:08:15.786Z,998.33
2018-09-29T14:09:15.718Z,998.39
2018-09-29T14:11:15.606Z,998.34
2018-09-29T14:12:15.513Z,998.43
2018-09-29T14:13:15.444Z,998.56
2018-09-29T14:14:15.374Z,998.44
2018-09-29T14:15:15.306Z,998.44
2018-09-29T14:16:15.336Z,998.45
2018-09-29T14:17:15.166Z,998.41
2018-09-29T14:18:15.096Z,998.27
2018-09-29T14:19:15.027Z,998.24
2018-09-29T14:20:14.958Z,998.27
2018-09-29T14:21:14.889Z,998.32
2018-09-29T14:22:14.817Z,998.29
2018-09-29T14:23:14.747Z,998.32
2018-09-29T14:24:14.678Z,998.29
2018-09-29T14:25:14.610Z,998.31
2018-09-29T14:26:14.538Z,998.31
2018-09-29T14:27:14.469Z,998.32
2018-09-29T14:28:14.401Z,998.24
2018-09-29T14:29:14.331Z,998.32
2018-09-29T14:30:14.334Z,998.29
2018-09-29T14:31:14.193Z,998.29
2018-09-29T14:32:14.126Z,998.22
2018-09-29T14:33:14.061Z,998.15
2018-09-29T14:34:13.987Z,998.20
2018-09-29T14:35:13.919Z,998.09
2018-09-29T14:36:13.950Z,998.07
2018-09-29T14:37:13.783Z,998.10
2018-09-29T14:38:13.714Z,998.18
2018-09-29T14:39:13.645Z,998.19
2018-09-29T14:40:13.579Z,998.20
2018-09-29T14:41:13.508Z,998.15
2018-09-29T14:42:13.440Z,998.16
2018-09-29T14:43:13.371Z,998.10
2018-09-29T14:44:13.302Z,998.11
2018-09-29T14:45:13.289Z,998.08
2018-09-29T14:46:13.166Z,998.07
2018-09-29T14:47:13.198Z,998.07
2018-09-29T14:48:13.029Z,998.03
2018-09-29T14:49:12.959Z,998.03
2018-09-29T14:50:12.894Z,998.08
2018-09-29T14:51:12.826Z,998.07
2018-09-29T14:52:12.762Z,998.09
2018-09-29T14:53:12.687Z,998.06
2018-09-29T14:54:12.617Z,997.96
2018-09-29T14:55:12.550Z,997.88
2018-09-29T14:56:12.482Z,997.78
2018-09-29T14:57:12.413Z,997.78
2018-09-29T14:58:12.343Z,997.72
2018-09-29T14:59:12.275Z,997.74
2018-09-29T15:00:12.207Z,997.69
2018-09-29T15:01:12.138Z,997.65
2018-09-29T15:02:12.069Z,997.68
2018-09-29T15:03:12.000Z,997.61
2018-09-29T15:04:11.950Z,997.58
2018-09-29T15:05:11.862Z,997.63
2018-09-29T15:06:11.792Z,997.60
2018-09-29T15:07:11.723Z,997.59
2018-09-29T15:08:11.655Z,997.59
2018-09-29T15:09:11.583Z,997.57
2018-09-29T15:10:11.549Z,997.55
2018-09-29T15:11:11.442Z,997.61
2018-09-29T15:12:11.372Z,997.56
2018-09-29T15:14:11.230Z,997.57
2018-09-29T15:15:11.159Z,997.58
2018-09-29T15:16:11.091Z,997.58
2018-09-29T15:17:11.022Z,997.51
2018-09-29T15:18:10.996Z,997.49
2018-09-29T15:19:10.880Z,997.52
2018-09-29T15:20:10.805Z,997.52
2018-09-29T15:21:10.739Z,997.52
2018-09-29T15:22:10.663Z,997.49
2018-09-29T15:23:10.595Z,997.45
2018-09-29T15:24:10.521Z,997.40
2018-09-29T15:25:10.451Z,997.44
2018-09-29T15:26:10.468Z,997.43
2018-09-29T15:27:10.307Z,997.40
2018-09-29T15:28:10.235Z,997.39
2018-09-29T15:29:10.165Z,997.40
2018-09-29T15:30:10.094Z,997.35
2018-09-29T15:31:10.023Z,997.39
2018-09-29T15:32:09.952Z,997.31
2018-09-29T15:33:09.880Z,997.33
2018-09-29T15:34:09.808Z,997.34
2018-09-29T15:35:09.737Z,997.33
2018-09-29T15:36:09.664Z,997.33
2018-09-29T15:37:09.635Z,997.35
2018-09-29T15:38:09.519Z,997.34
2018-09-29T15:39:09.453Z,997.33
2018-09-29T15:40:09.376Z,997.30
2018-09-29T15:41:09.306Z,997.30
2018-09-29T15:42:09.232Z,997.32
2018-09-29T15:43:09.160Z,997.29
2018-09-29T15:44:09.103Z,997.32
2018-09-29T15:45:09.092Z,997.30
2018-09-29T15:46:08.943Z,997.27
2018-09-29T15:47:08.872Z,997.27
2018-09-29T15:48:08.802Z,997.28
2018-09-29T15:49:08.730Z,997.28
2018-09-29T15:50:08.658Z,997.27
2018-09-29T15:51:08.582Z,997.25
2018-09-29T15:52:08.510Z,997.29
2018-09-29T15:53:08.439Z,997.22
2018-09-29T15:54:08.365Z,997.23
2018-09-29T15:55:08.324Z,997.23
2018-09-29T15:56:08.225Z,997.21
2018-09-29T15:57:08.155Z,997.18
2018-09-29T15:58:08.083Z,997.19
2018-09-29T15:59:08.004Z,997.18
2018-09-29T16:00:07.932Z,997.17
2018-09-29T16:01:07.860Z,997.17
2018-09-29T16:02:07.828Z,997.14
2018-09-29T16:03:07.715Z,997.14
2018-09-29T16:04:07.640Z,997.12
2018-09-29T16:05:07.569Z,997.14
2018-09-29T16:06:07.496Z,997.12
2018-09-29T16:07:07.424Z,997.15
2018-09-29T16:08:07.378Z,997.11
2018-09-29T16:09:07.296Z,997.11
2018-09-29T16:10:07.207Z,997.08
2018-09-29T16:11:07.133Z,997.14
2018-09-29T16:12:07.060Z,997.11
2018-09-29T16:13:06.988Z,997.12
2018-09-29T16:14:06.916Z,997.15